NCAR-RAP Real-Time Weather Data

Output produced by METARs form (12 August 2020  18:47 UTC)
found at http://weather.rap.ucar.edu/surface/
 
KMAE 121753Z AUTO VRB04KT 10SM CLR 29/14 A2992 RMK AO2 SLP128 T02890144 10294 20156 51004
KMAE 121653Z AUTO 00000KT 10SM CLR 26/13 A2992 RMK AO2 SLP127 T02610133
KMAE 121553Z AUTO 00000KT 10SM CLR 23/13 A2992 RMK AO2 SLP128 T02330133
KMAE 121453Z AUTO 32004KT 10SM CLR 21/13 A2991 RMK AO2 SLP124 T02060133 53016
KMAE 121353Z AUTO 00000KT 10SM CLR 18/13 A2989 RMK AO2 SLP117 T01780133 TSNO
KMAE 121253Z AUTO 28005KT 10SM CLR 17/13 A2987 RMK AO2 SLP112 T01670128 TSNO
KMAE 121153Z AUTO 32004KT 10SM CLR 17/13 A2986 RMK AO2 SLP107 T01720128 10250 20172 53002 TSNO
KMAE 121053Z AUTO 33005KT 10SM CLR 18/14 A2985 RMK AO2 SLP104 T01780139 TSNO
KMAE 120953Z AUTO 28006KT 10SM CLR 18/14 A2985 RMK AO2 SLP106 T01830144 TSNO
KMAE 120853Z AUTO 30003KT 10SM CLR 20/14 A2985 RMK AO2 SLP105 T02000144 50000
KMAE 120753Z AUTO 31006KT 10SM CLR 22/14 A2986 RMK AO2 SLP107 T02220144 403780178
KMAE 120653Z AUTO 30007KT 10SM CLR 24/15 A2986 RMK AO2 SLP106 T02390150
KMAE 120553Z AUTO 30007KT 10SM CLR 25/16 A2985 RMK AO2 SLP105 T02500156 10367 20250 51015
KMAE 120453Z AUTO 31007KT 10SM CLR 26/15 A2985 RMK AO2 SLP104 T02610150
KMAE 120353Z AUTO 29007KT 10SM FEW110 28/16 A2983 RMK AO2 SLP097 T02780161
KMAE 120253Z AUTO 30006KT 10SM SCT110 31/16 A2981 RMK AO2 SLP089 T03060161 55001
KMAE 120153Z AUTO 30008KT 10SM BKN110 34/14 A2979 RMK AO2 SLP085 T03440144
KMAE 120053Z AUTO 29009KT 10SM BKN110 36/13 A2980 RMK AO2 SLP086 T03610128
KMAE 112353Z AUTO 29007KT 10SM BKN110 37/12 A2981 RMK AO2 SLP091 T03670117 10378 20306 56016